Etusivu
METAR-TAF:

METAR-TAF

Lentoasemat :

Powell River, Brittiläinen Kolumbia, Kanada

Leveyspiiri: 49-50N, Pituuspiiri: 124-30W, korkeus merenpinnasta: 130 m

Tämänhetkinen sää

Tämä raportti tehtiin 52 minuuttia sitten, kello 16.00 UTC
tyyntä
Lämpötila 8°C
Kosteus 100%
Ilmanpaine 1016 hPa
Näkyvyys: 24.1 km
Muutamia pilviä 900 ft:n korkeudessa
Pilvistä 1100 ft:n korkeudessa

METAR: CYPW 181600Z 00000KT 15SM FEW009 OVC011 08/08 A3001 RMK SF1SC8 SF TR SLP167

Aika: 08:52 (16:52 UTC)


TAF: puuttuu

Säähavainnot ja -ennusteet yli 4000 lentoasemalta (METAR- ja TAF-raportit).

Käytössä olevat sääasemat on merkitty karttaan keltaisilla ja punaisilla pisteillä.

Aseta hiiri pisteen päälle nähdäksesi sääaseman nimen.

Klikkaa sitten nähdäksesi säähavainnot ja -ennusteet.

Kartan vaihtaminen: klikkaa mustalla rastilla varustettuja vihreitä pisteitä, niin voit zoomata sisään; viivalla varustettua vihreää pistettä, niin voit zoomata ulos tai vihreitä nuolia, niin pääset viereisille kartoille.


METAR-TAF: